createdAt,value
2022-08-25T00:00:50.729Z,21.34
2022-08-25T00:02:00.516Z,21.34
2022-08-25T00:03:06.246Z,21.32
2022-08-25T00:04:14.404Z,21.29
2022-08-25T00:05:19.117Z,21.28
2022-08-25T00:06:22.891Z,21.26
2022-08-25T00:07:26.488Z,21.29
2022-08-25T00:08:29.468Z,21.33
2022-08-25T00:09:37.488Z,21.31
2022-08-25T00:10:43.430Z,21.29
2022-08-25T00:11:51.663Z,21.35
2022-08-25T00:13:00.453Z,21.32
2022-08-25T00:14:08.768Z,21.25
2022-08-25T00:16:35.615Z,21.33
2022-08-25T00:17:40.236Z,21.12
2022-08-25T00:18:46.691Z,21.19
2022-08-25T00:21:06.454Z,21.24
2022-08-25T00:22:10.018Z,21.03
2022-08-25T00:23:13.729Z,20.96
2022-08-25T00:24:19.782Z,20.94
2022-08-25T00:25:27.474Z,20.99
2022-08-25T00:26:33.646Z,21.02
2022-08-25T00:27:37.215Z,21.02
2022-08-25T00:28:41.631Z,21.01
2022-08-25T00:29:45.217Z,21.01
2022-08-25T00:30:49.363Z,20.90
2022-08-25T00:31:55.320Z,20.91
2022-08-25T00:32:58.178Z,20.92
2022-08-25T00:34:01.291Z,20.92
2022-08-25T00:35:05.969Z,20.83
2022-08-25T00:36:15.561Z,20.88
2022-08-25T00:37:19.875Z,20.86
2022-08-25T00:38:24.445Z,20.84
2022-08-25T00:39:27.255Z,20.83
2022-08-25T00:40:33.233Z,20.75
2022-08-25T00:41:38.643Z,20.76
2022-08-25T00:42:46.132Z,20.71
2022-08-25T00:43:53.568Z,20.66
2022-08-25T00:44:56.444Z,20.79
2022-08-25T00:46:03.345Z,20.73
2022-08-25T00:47:09.401Z,20.75
2022-08-25T00:48:13.965Z,20.70
2022-08-25T00:49:47.258Z,20.66
2022-08-25T00:50:53.492Z,20.69
2022-08-25T00:52:19.535Z,20.72
2022-08-25T00:53:24.930Z,20.63
2022-08-25T00:54:34.299Z,20.59
2022-08-25T00:55:41.050Z,20.58
2022-08-25T00:56:46.144Z,20.58
2022-08-25T00:58:00.236Z,20.62
2022-08-25T00:59:08.879Z,20.59
2022-08-25T01:00:27.051Z,20.60
2022-08-25T01:01:30.272Z,20.59
2022-08-25T01:02:34.136Z,20.55
2022-08-25T01:03:38.004Z,20.57
2022-08-25T01:04:47.583Z,20.49
2022-08-25T01:05:48.340Z,20.55
2022-08-25T01:06:52.785Z,20.57
2022-08-25T01:08:01.193Z,20.52
2022-08-25T01:09:08.980Z,20.48
2022-08-25T01:10:13.672Z,20.43
2022-08-25T01:11:17.214Z,20.42
2022-08-25T01:12:25.607Z,20.38
2022-08-25T01:14:54.875Z,20.47
2022-08-25T01:15:59.552Z,20.25
2022-08-25T01:17:05.161Z,20.18
2022-08-25T01:18:09.543Z,20.21
2022-08-25T01:19:15.655Z,20.20
2022-08-25T01:21:43.122Z,20.24
2022-08-25T01:22:55.071Z,20.04
2022-08-25T01:23:56.374Z,20.03
2022-08-25T01:25:03.332Z,20.11
2022-08-25T01:26:13.882Z,20.16
2022-08-25T01:27:17.004Z,20.15
2022-08-25T01:28:24.713Z,20.07
2022-08-25T01:29:31.646Z,20.04
2022-08-25T01:30:34.934Z,20.04
2022-08-25T01:31:39.788Z,20.00
2022-08-25T01:32:42.701Z,20.01
2022-08-25T01:33:49.606Z,19.91
2022-08-25T01:34:53.259Z,19.95
2022-08-25T01:35:57.117Z,19.98
2022-08-25T01:37:02.814Z,19.92
2022-08-25T01:38:09.732Z,19.84
2022-08-25T01:39:16.588Z,19.84
2022-08-25T01:40:23.577Z,19.81
2022-08-25T01:41:38.597Z,19.73
2022-08-25T01:43:07.598Z,19.65
2022-08-25T01:44:16.451Z,19.72
2022-08-25T01:46:36.582Z,19.92
2022-08-25T01:47:41.622Z,19.77
2022-08-25T01:48:48.763Z,19.81
2022-08-25T01:49:52.502Z,19.79
2022-08-25T01:50:55.759Z,19.75
2022-08-25T01:52:30.163Z,19.71
2022-08-25T01:53:33.900Z,19.66
2022-08-25T01:54:37.647Z,19.69
2022-08-25T01:55:52.995Z,19.68
2022-08-25T01:56:57.671Z,19.64
2022-08-25T01:58:03.550Z,19.65
2022-08-25T01:59:10.900Z,19.59
2022-08-25T02:00:17.703Z,19.64
2022-08-25T02:01:25.605Z,19.73
2022-08-25T02:02:29.242Z,19.74
2022-08-25T02:03:41.186Z,19.72
2022-08-25T02:04:44.708Z,19.73
2022-08-25T02:05:52.492Z,19.71
2022-08-25T02:06:56.372Z,19.64
2022-08-25T02:08:00.988Z,19.66
2022-08-25T02:09:10.935Z,19.60
2022-08-25T02:10:14.761Z,19.65
2022-08-25T02:11:19.410Z,19.63
2022-08-25T02:12:23.933Z,19.62
2022-08-25T02:13:31.665Z,19.62
2022-08-25T02:14:36.994Z,19.66
2022-08-25T02:15:48.122Z,19.69
2022-08-25T02:16:54.572Z,19.69
2022-08-25T02:17:59.463Z,19.61
2022-08-25T02:19:06.006Z,19.65
2022-08-25T02:20:12.420Z,19.68
2022-08-25T02:21:16.094Z,19.57
2022-08-25T02:22:20.636Z,19.56
2022-08-25T02:23:23.973Z,19.56
2022-08-25T02:24:29.855Z,19.59
2022-08-25T02:25:35.340Z,19.50
2022-08-25T02:26:39.221Z,19.52
2022-08-25T02:27:44.754Z,19.52
2022-08-25T02:28:48.813Z,19.47
2022-08-25T02:29:56.103Z,19.46
2022-08-25T02:31:01.759Z,19.47
2022-08-25T02:32:07.903Z,19.48
2022-08-25T02:33:12.194Z,19.44
2022-08-25T02:34:16.216Z,19.44
2022-08-25T02:35:21.851Z,19.42
2022-08-25T02:36:28.595Z,19.41
2022-08-25T02:37:33.944Z,19.41
2022-08-25T02:38:38.181Z,19.27
2022-08-25T02:39:42.765Z,19.33
2022-08-25T02:40:46.444Z,19.32
2022-08-25T02:41:51.368Z,19.41
2022-08-25T02:42:58.366Z,19.38
2022-08-25T02:44:04.230Z,19.45
2022-08-25T02:45:08.507Z,19.43
2022-08-25T02:46:13.544Z,19.41
2022-08-25T02:47:20.462Z,19.43
2022-08-25T02:48:28.544Z,19.45
2022-08-25T02:49:34.748Z,19.31
2022-08-25T02:50:38.564Z,19.36
2022-08-25T03:13:21.180Z,19.37
2022-08-25T03:14:25.569Z,19.42
2022-08-25T03:15:30.492Z,19.32
2022-08-25T03:16:37.310Z,19.23
2022-08-25T03:17:43.807Z,19.30
2022-08-25T03:18:47.285Z,19.31
2022-08-25T03:19:49.848Z,19.31
2022-08-25T03:20:53.572Z,19.35
2022-08-25T03:21:58.594Z,19.36
2022-08-25T03:23:07.372Z,19.44
2022-08-25T03:24:11.562Z,19.39
2022-08-25T03:25:34.726Z,19.35
2022-08-25T03:26:57.574Z,19.44
2022-08-25T03:28:01.438Z,19.44
2022-08-25T03:29:06.356Z,19.46
2022-08-25T03:30:12.253Z,19.43
2022-08-25T03:31:14.850Z,19.52
2022-08-25T03:32:19.743Z,19.49
2022-08-25T03:33:22.277Z,19.52
2022-08-25T03:34:30.084Z,19.49
2022-08-25T03:35:34.440Z,19.50
2022-08-25T03:36:39.244Z,19.50
2022-08-25T03:37:42.391Z,19.45
2022-08-25T03:38:46.190Z,19.54
2022-08-25T03:39:49.694Z,19.56
2022-08-25T03:40:53.452Z,19.59
2022-08-25T03:41:59.876Z,19.61
2022-08-25T03:43:03.406Z,19.60
2022-08-25T03:44:11.507Z,19.51
2022-08-25T03:45:18.400Z,19.58
2022-08-25T03:46:27.825Z,19.53
2022-08-25T03:47:31.254Z,19.62
2022-08-25T03:48:34.056Z,19.50
2022-08-25T03:49:38.787Z,19.56
2022-08-25T03:50:50.705Z,19.61
2022-08-25T03:51:56.486Z,19.57
2022-08-25T03:53:02.752Z,19.72
2022-08-25T03:54:07.499Z,19.68
2022-08-25T03:55:13.025Z,19.65
2022-08-25T03:56:18.696Z,19.73
2022-08-25T03:57:27.972Z,19.77
2022-08-25T03:58:31.650Z,19.78
2022-08-25T03:59:34.952Z,19.78
2022-08-25T04:00:39.599Z,19.89
2022-08-25T04:01:48.428Z,19.89
2022-08-25T04:02:52.492Z,19.93
2022-08-25T04:04:03.624Z,19.97
2022-08-25T04:05:08.929Z,20.06
2022-08-25T04:06:13.411Z,19.95
2022-08-25T04:07:21.157Z,19.96
2022-08-25T04:08:26.438Z,20.00
2022-08-25T04:09:36.431Z,20.03
2022-08-25T04:10:38.086Z,20.07
2022-08-25T04:11:44.832Z,20.05
2022-08-25T04:12:51.987Z,20.10
2022-08-25T04:13:59.186Z,20.13
2022-08-25T04:15:08.192Z,20.07
2022-08-25T04:16:18.134Z,20.04
2022-08-25T04:17:21.946Z,20.19
2022-08-25T04:18:26.593Z,20.16
2022-08-25T04:19:31.190Z,20.16
2022-08-25T04:20:36.380Z,20.18
2022-08-25T04:21:41.436Z,20.26
2022-08-25T04:22:45.504Z,20.31
2022-08-25T04:23:53.328Z,20.34
2022-08-25T04:24:58.285Z,20.39
2022-08-25T04:26:05.003Z,20.47
2022-08-25T04:27:08.724Z,20.47
2022-08-25T04:28:12.161Z,20.48
2022-08-25T04:29:17.568Z,20.55
2022-08-25T04:30:22.854Z,20.52
2022-08-25T04:31:27.071Z,20.59
2022-08-25T04:32:33.163Z,20.58
2022-08-25T04:33:38.594Z,20.64
2022-08-25T04:34:43.011Z,20.87
2022-08-25T04:35:50.473Z,20.96
2022-08-25T04:36:53.767Z,20.78
2022-08-25T04:37:58.350Z,20.77
2022-08-25T04:39:03.212Z,20.85
2022-08-25T04:40:10.969Z,20.79
2022-08-25T04:41:18.534Z,20.77
2022-08-25T04:42:21.599Z,20.91
2022-08-25T04:43:25.209Z,20.88
2022-08-25T04:44:29.721Z,20.91
2022-08-25T04:45:40.226Z,21.06
2022-08-25T04:46:44.774Z,21.15
2022-08-25T04:47:51.770Z,21.18
2022-08-25T04:48:58.683Z,21.26
2022-08-25T04:50:04.796Z,21.23
2022-08-25T04:51:14.472Z,21.31
2022-08-25T04:52:21.448Z,21.35
2022-08-25T04:53:24.053Z,21.40
2022-08-25T04:54:28.878Z,21.55
2022-08-25T04:55:33.948Z,21.60
2022-08-25T04:56:42.015Z,21.68
2022-08-25T04:57:45.621Z,21.79
2022-08-25T04:58:50.314Z,21.83
2022-08-25T04:59:53.884Z,22.01
2022-08-25T05:01:12.144Z,22.09
2022-08-25T05:02:16.902Z,22.75
2022-08-25T05:03:20.101Z,23.41
2022-08-25T05:04:28.118Z,23.55
2022-08-25T05:05:28.850Z,24.24
2022-08-25T05:06:35.597Z,25.52
2022-08-25T05:07:38.999Z,26.98
2022-08-25T05:08:42.644Z,28.39
2022-08-25T05:09:49.108Z,29.46
2022-08-25T05:12:07.148Z,29.63
2022-08-25T05:13:13.162Z,28.38
2022-08-25T05:14:20.853Z,27.27
2022-08-25T05:15:45.450Z,26.55
2022-08-25T05:16:50.726Z,26.35
2022-08-25T05:17:56.099Z,25.95
2022-08-25T05:18:59.791Z,25.69
2022-08-25T05:20:07.729Z,25.46
2022-08-25T05:21:14.723Z,25.30
2022-08-25T05:22:20.853Z,25.07
2022-08-25T05:23:25.926Z,24.81
2022-08-25T05:24:30.233Z,24.63
2022-08-25T05:25:35.190Z,24.52
2022-08-25T05:26:47.659Z,24.54
2022-08-25T05:27:54.280Z,24.77
2022-08-25T05:28:59.746Z,24.82
2022-08-25T05:30:04.088Z,24.81
2022-08-25T05:31:09.142Z,25.06
2022-08-25T05:32:15.909Z,25.40
2022-08-25T05:33:22.332Z,25.72
2022-08-25T05:34:26.148Z,26.01
2022-08-25T05:35:29.792Z,26.28
2022-08-25T05:36:36.017Z,26.45
2022-08-25T05:37:41.780Z,26.23
2022-08-25T05:38:44.654Z,26.00
2022-08-25T05:39:48.971Z,25.94
2022-08-25T05:40:57.193Z,25.57
2022-08-25T05:42:00.720Z,25.35
2022-08-25T05:43:04.217Z,25.46
2022-08-25T05:44:09.413Z,25.58
2022-08-25T05:45:14.294Z,25.61
2022-08-25T05:46:23.580Z,25.63
2022-08-25T05:47:32.600Z,25.50
2022-08-25T05:48:37.823Z,25.39
2022-08-25T05:49:40.520Z,25.28
2022-08-25T05:50:55.907Z,25.13
2022-08-25T05:52:00.284Z,25.00
2022-08-25T05:53:04.067Z,25.06
2022-08-25T05:54:08.415Z,25.21
2022-08-25T05:55:12.431Z,25.37
2022-08-25T05:56:20.336Z,25.63
2022-08-25T05:57:24.040Z,25.55
2022-08-25T05:58:31.079Z,25.58
2022-08-25T05:59:34.809Z,25.66
2022-08-25T06:00:39.995Z,26.03
2022-08-25T06:02:02.543Z,26.32
2022-08-25T06:03:10.079Z,26.22
2022-08-25T06:04:16.722Z,26.44
2022-08-25T06:05:24.442Z,26.31
2022-08-25T06:06:28.113Z,26.21
2022-08-25T06:07:33.138Z,25.99
2022-08-25T06:08:38.574Z,26.14
2022-08-25T06:09:47.542Z,26.32
2022-08-25T06:10:52.548Z,26.74
2022-08-25T06:11:56.708Z,26.67
2022-08-25T06:13:02.555Z,26.49
2022-08-25T06:14:11.768Z,26.45
2022-08-25T06:15:17.604Z,26.36
2022-08-25T06:16:22.491Z,26.40
2022-08-25T06:17:26.382Z,26.32
2022-08-25T06:18:31.581Z,26.28
2022-08-25T06:19:34.632Z,26.33
2022-08-25T06:20:41.219Z,25.97
2022-08-25T06:21:47.515Z,26.12
2022-08-25T06:22:52.023Z,26.28
2022-08-25T06:23:55.592Z,26.49
2022-08-25T06:24:58.717Z,26.87
2022-08-25T06:26:05.289Z,27.13
2022-08-25T06:27:08.480Z,27.20
2022-08-25T06:28:13.450Z,26.98
2022-08-25T06:29:20.897Z,26.96
2022-08-25T06:30:28.920Z,27.08
2022-08-25T06:31:33.364Z,27.23
2022-08-25T06:32:41.684Z,27.09
2022-08-25T06:33:47.010Z,26.90
2022-08-25T06:34:50.373Z,26.96
2022-08-25T06:35:56.686Z,27.15
2022-08-25T06:37:01.607Z,27.30
2022-08-25T06:38:06.082Z,27.26
2022-08-25T06:39:10.549Z,27.10
2022-08-25T06:40:19.485Z,27.16
2022-08-25T06:41:22.698Z,27.23
2022-08-25T06:42:25.770Z,27.40
2022-08-25T06:43:29.639Z,27.31
2022-08-25T06:44:33.178Z,27.47
2022-08-25T06:45:35.608Z,28.30
2022-08-25T06:46:41.179Z,30.00
2022-08-25T06:47:45.549Z,31.50
2022-08-25T06:48:50.186Z,32.21
2022-08-25T06:49:57.151Z,33.25
2022-08-25T06:51:00.706Z,34.82
2022-08-25T06:52:08.197Z,36.24
2022-08-25T06:53:12.666Z,37.77
2022-08-25T06:54:18.016Z,39.19
2022-08-25T06:55:21.383Z,40.10
2022-08-25T06:56:25.480Z,40.78
2022-08-25T06:57:34.461Z,40.77
2022-08-25T06:58:38.172Z,40.74
2022-08-25T06:59:42.090Z,40.80
2022-08-25T07:00:47.281Z,40.63
2022-08-25T07:01:51.281Z,41.27
2022-08-25T07:02:58.796Z,41.55
2022-08-25T07:04:10.094Z,42.58
2022-08-25T07:05:17.021Z,43.27
2022-08-25T07:06:27.041Z,42.68
2022-08-25T07:07:43.012Z,42.69
2022-08-25T07:08:37.715Z,43.30
2022-08-25T07:09:41.397Z,43.87
2022-08-25T07:10:48.175Z,44.45
2022-08-25T07:11:51.021Z,44.31
2022-08-25T07:12:55.511Z,43.45
2022-08-25T07:13:59.683Z,43.06
2022-08-25T07:15:19.369Z,43.15
2022-08-25T07:16:11.708Z,43.09
2022-08-25T07:17:15.690Z,43.46
2022-08-25T07:18:20.133Z,43.83
2022-08-25T07:19:25.191Z,43.69
2022-08-25T07:20:33.219Z,43.84
2022-08-25T07:21:41.767Z,44.13
2022-08-25T07:22:48.110Z,43.97
2022-08-25T07:23:55.254Z,43.62
2022-08-25T07:24:57.688Z,43.70
2022-08-25T07:26:37.768Z,43.09
2022-08-25T07:27:26.588Z,42.94
2022-08-25T07:28:33.087Z,42.73
2022-08-25T07:29:42.711Z,43.22
2022-08-25T07:30:51.772Z,44.17
2022-08-25T07:31:54.265Z,43.62
2022-08-25T07:32:58.000Z,43.48
2022-08-25T07:34:18.963Z,43.88
2022-08-25T07:35:24.562Z,43.78
2022-08-25T07:36:33.573Z,43.26
2022-08-25T07:37:49.731Z,43.17
2022-08-25T07:38:46.929Z,42.81
2022-08-25T07:39:50.830Z,42.88
2022-08-25T07:41:06.510Z,43.04
2022-08-25T07:42:12.035Z,43.35
2022-08-25T07:43:14.285Z,43.58
2022-08-25T07:44:19.031Z,42.98
2022-08-25T07:45:27.254Z,43.29
2022-08-25T07:46:33.587Z,43.58
2022-08-25T07:47:40.314Z,44.50
2022-08-25T07:48:53.273Z,44.82
2022-08-25T07:49:54.758Z,45.14
2022-08-25T07:50:58.904Z,44.65
2022-08-25T07:52:04.717Z,44.50
2022-08-25T07:53:16.940Z,44.36
2022-08-25T07:54:20.700Z,43.62
2022-08-25T07:55:32.217Z,43.46
2022-08-25T07:56:35.477Z,43.91
2022-08-25T07:57:55.366Z,43.91
2022-08-25T07:59:00.483Z,44.02
2022-08-25T08:00:07.473Z,44.15
2022-08-25T08:01:17.038Z,44.40
2022-08-25T08:02:20.680Z,43.59
2022-08-25T08:04:42.657Z,43.84
2022-08-25T08:05:49.511Z,44.24
2022-08-25T08:06:53.562Z,44.02
2022-08-25T08:07:58.982Z,43.40
2022-08-25T08:09:03.831Z,43.45
2022-08-25T08:10:42.186Z,42.75
2022-08-25T08:11:23.952Z,43.17
2022-08-25T08:12:29.579Z,43.32
2022-08-25T08:13:39.313Z,43.29
2022-08-25T08:14:44.996Z,42.61
2022-08-25T08:15:47.039Z,41.86
2022-08-25T08:16:53.126Z,41.69
2022-08-25T08:17:57.078Z,41.24
2022-08-25T08:19:04.710Z,41.13
2022-08-25T08:21:30.678Z,40.63
2022-08-25T08:22:34.199Z,39.83
2022-08-25T08:23:37.217Z,40.17
2022-08-25T08:24:44.909Z,40.72
2022-08-25T08:25:45.900Z,40.44
2022-08-25T08:26:58.712Z,39.98
2022-08-25T08:27:56.040Z,39.98
2022-08-25T08:28:59.648Z,40.29
2022-08-25T08:30:04.963Z,40.16
2022-08-25T08:31:10.562Z,39.52
2022-08-25T08:32:17.071Z,39.38
2022-08-25T08:33:23.228Z,39.14
2022-08-25T08:34:27.098Z,39.36
2022-08-25T08:35:31.368Z,39.54
2022-08-25T08:36:35.041Z,39.34
2022-08-25T08:37:39.871Z,39.67
2022-08-25T08:38:47.106Z,39.73
2022-08-25T08:39:51.993Z,39.72
2022-08-25T08:41:27.141Z,39.30
2022-08-25T08:43:04.633Z,39.06
2022-08-25T08:44:19.335Z,38.98
2022-08-25T08:45:40.554Z,39.27
2022-08-25T08:46:52.219Z,39.03
2022-08-25T08:48:17.774Z,39.08
2022-08-25T08:49:29.118Z,38.93
2022-08-25T08:50:49.328Z,39.17
2022-08-25T08:51:58.583Z,38.96
2022-08-25T08:53:26.527Z,39.08
2022-08-25T08:54:34.911Z,38.99
2022-08-25T08:55:52.286Z,39.71
2022-08-25T08:57:06.665Z,39.81
2022-08-25T08:58:15.265Z,39.79
2022-08-25T08:59:29.944Z,39.79
2022-08-25T09:00:42.147Z,39.78
2022-08-25T09:01:53.311Z,39.56
2022-08-25T09:03:03.385Z,39.50
2022-08-25T09:04:40.960Z,39.71
2022-08-25T09:05:51.076Z,39.71
2022-08-25T09:06:57.119Z,39.50
2022-08-25T09:08:11.333Z,39.35
2022-08-25T09:09:20.203Z,39.43
2022-08-25T09:10:29.178Z,39.16
2022-08-25T09:11:37.120Z,39.16
2022-08-25T09:12:58.189Z,38.95
2022-08-25T09:14:40.529Z,38.95
2022-08-25T09:16:09.447Z,39.11
2022-08-25T09:18:53.264Z,38.28
2022-08-25T09:20:37.011Z,38.35
2022-08-25T09:21:47.722Z,38.51
2022-08-25T09:22:58.385Z,38.21
2022-08-25T09:24:12.065Z,38.15
2022-08-25T09:25:52.976Z,38.63
2022-08-25T09:27:06.801Z,38.67
2022-08-25T09:28:30.162Z,38.42
2022-08-25T09:31:07.919Z,39.07
2022-08-25T09:32:12.718Z,39.15
2022-08-25T09:33:22.041Z,38.62
2022-08-25T09:34:32.874Z,38.62
2022-08-25T09:35:42.682Z,38.37
2022-08-25T09:36:48.627Z,38.21
2022-08-25T09:38:00.938Z,38.36
2022-08-25T09:39:06.569Z,38.82
2022-08-25T09:40:13.300Z,38.32
2022-08-25T09:41:19.533Z,38.32
2022-08-25T09:42:28.700Z,37.49
2022-08-25T09:43:38.102Z,37.49
2022-08-25T09:44:44.794Z,37.35
2022-08-25T09:45:55.461Z,38.02
2022-08-25T09:47:21.135Z,38.40
2022-08-25T09:50:05.503Z,38.86
2022-08-25T09:51:43.016Z,38.44
2022-08-25T09:52:45.048Z,38.60
2022-08-25T09:53:59.154Z,38.74
2022-08-25T09:55:15.401Z,38.94
2022-08-25T09:56:22.363Z,38.60
2022-08-25T09:57:52.970Z,38.22
2022-08-25T09:59:03.054Z,38.13
2022-08-25T10:00:17.981Z,38.59
2022-08-25T10:01:23.716Z,38.29
2022-08-25T10:02:33.467Z,38.87
2022-08-25T10:03:41.879Z,38.93
2022-08-25T10:04:46.650Z,39.11
2022-08-25T10:05:59.968Z,39.23
2022-08-25T10:07:29.130Z,38.63
2022-08-25T10:08:39.538Z,38.50
2022-08-25T10:09:53.772Z,38.50
2022-08-25T10:11:02.023Z,38.53
2022-08-25T10:12:21.197Z,37.58
2022-08-25T10:13:51.435Z,36.94
2022-08-25T10:14:57.036Z,37.17
2022-08-25T10:16:20.003Z,37.62
2022-08-25T10:17:24.609Z,37.89
2022-08-25T10:18:30.427Z,38.43
2022-08-25T10:19:35.592Z,38.53
2022-08-25T10:20:44.407Z,38.68
2022-08-25T10:21:52.116Z,39.09
2022-08-25T10:23:14.764Z,39.09
2022-08-25T10:24:19.493Z,39.36
2022-08-25T10:25:27.068Z,39.99
2022-08-25T10:26:52.247Z,39.78
2022-08-25T10:28:11.626Z,39.29
2022-08-25T10:29:41.852Z,39.14
2022-08-25T10:31:09.641Z,39.03
2022-08-25T10:32:20.490Z,38.41
2022-08-25T10:33:46.096Z,38.16
2022-08-25T10:36:15.171Z,38.28
2022-08-25T10:37:35.399Z,38.28
2022-08-25T10:38:48.916Z,37.93
2022-08-25T10:39:58.237Z,37.93
2022-08-25T10:41:18.073Z,38.04
2022-08-25T10:42:25.982Z,37.84
2022-08-25T10:43:41.402Z,38.14
2022-08-25T10:45:16.624Z,37.97
2022-08-25T10:46:41.725Z,38.38
2022-08-25T10:48:12.329Z,38.43
2022-08-25T10:51:08.537Z,36.79
2022-08-25T10:52:34.654Z,36.05
2022-08-25T10:53:58.204Z,35.52
2022-08-25T10:55:20.208Z,35.68
2022-08-25T10:56:34.715Z,35.73
2022-08-25T10:58:04.505Z,36.59
2022-08-25T10:59:30.079Z,36.24
2022-08-25T11:00:47.052Z,35.94
2022-08-25T11:02:11.701Z,36.24
2022-08-25T11:03:54.034Z,36.47
2022-08-25T11:05:07.502Z,36.27
2022-08-25T11:06:32.639Z,36.52
2022-08-25T11:07:57.403Z,36.97
2022-08-25T11:10:31.206Z,35.94
2022-08-25T11:12:00.173Z,35.63
2022-08-25T11:13:11.319Z,35.60
2022-08-25T11:14:22.635Z,35.22
2022-08-25T11:15:31.170Z,35.02
2022-08-25T11:16:46.133Z,35.28
2022-08-25T11:18:02.340Z,35.59
2022-08-25T11:19:20.166Z,35.63
2022-08-25T11:20:33.865Z,35.82
2022-08-25T11:21:57.231Z,35.86
2022-08-25T11:23:16.927Z,35.86
2022-08-25T11:26:03.309Z,36.57
2022-08-25T11:27:13.628Z,36.52
2022-08-25T11:28:35.211Z,36.48
2022-08-25T11:29:45.129Z,36.15
2022-08-25T11:30:56.501Z,35.91
2022-08-25T11:32:01.353Z,35.51
2022-08-25T11:33:07.772Z,35.02
2022-08-25T11:34:21.813Z,34.90
2022-08-25T11:35:32.020Z,34.62
2022-08-25T11:36:42.492Z,34.58
2022-08-25T11:39:38.880Z,34.91
2022-08-25T11:41:24.207Z,34.27
2022-08-25T11:42:49.291Z,34.66
2022-08-25T11:44:19.155Z,34.71
2022-08-25T11:45:38.817Z,34.52
2022-08-25T11:47:02.340Z,34.42
2022-08-25T11:48:31.360Z,34.63
2022-08-25T11:51:09.414Z,35.19
2022-08-25T11:52:36.229Z,35.29
2022-08-25T11:53:43.506Z,35.33
2022-08-25T11:54:49.093Z,35.48
2022-08-25T11:55:59.683Z,35.54
2022-08-25T11:57:12.295Z,35.75
2022-08-25T11:58:35.606Z,35.48
2022-08-25T11:59:59.403Z,35.30
2022-08-25T12:01:06.044Z,35.62
2022-08-25T12:02:15.497Z,35.26
2022-08-25T12:03:39.143Z,35.30
2022-08-25T12:04:44.699Z,35.22
2022-08-25T12:05:51.474Z,35.26
2022-08-25T12:07:10.644Z,35.41
2022-08-25T12:08:31.204Z,35.31
2022-08-25T12:09:57.650Z,35.53
2022-08-25T12:11:11.089Z,35.76
2022-08-25T12:12:26.533Z,35.45
2022-08-25T12:13:51.359Z,35.56
2022-08-25T12:14:56.091Z,35.40
2022-08-25T12:16:01.411Z,35.39
2022-08-25T12:18:32.838Z,35.24
2022-08-25T12:19:38.971Z,35.10
2022-08-25T12:20:58.345Z,35.33
2022-08-25T12:22:06.216Z,34.91
2022-08-25T12:23:13.785Z,34.84
2022-08-25T12:24:23.843Z,34.86
2022-08-25T12:25:34.031Z,35.27
2022-08-25T12:26:47.295Z,35.25
2022-08-25T12:28:17.630Z,35.37
2022-08-25T12:29:49.447Z,35.40
2022-08-25T12:31:33.400Z,35.38
2022-08-25T12:33:40.658Z,35.33
2022-08-25T12:34:48.552Z,35.12
2022-08-25T12:36:49.754Z,34.68
2022-08-25T12:38:30.046Z,34.93
2022-08-25T12:40:31.655Z,34.95
2022-08-25T12:42:32.060Z,34.47
2022-08-25T12:44:31.754Z,34.59
2022-08-25T12:46:13.567Z,34.50
2022-08-25T12:48:14.412Z,34.63
2022-08-25T12:49:52.856Z,34.53
2022-08-25T12:51:06.385Z,34.70
2022-08-25T12:53:06.185Z,34.77
2022-08-25T12:54:47.661Z,34.87
2022-08-25T12:56:13.172Z,34.96
2022-08-25T12:57:24.972Z,34.75
2022-08-25T13:01:57.478Z,34.51
2022-08-25T13:05:24.065Z,34.43
2022-08-25T13:06:51.779Z,34.50
2022-08-25T13:08:04.982Z,34.43
2022-08-25T13:09:32.517Z,34.11
2022-08-25T13:10:59.210Z,34.29
2022-08-25T13:12:27.707Z,34.28
2022-08-25T13:15:08.644Z,34.90
2022-08-25T13:16:32.307Z,34.94
2022-08-25T13:17:38.304Z,34.96
2022-08-25T13:18:41.038Z,34.83
2022-08-25T13:19:44.586Z,34.98
2022-08-25T13:20:56.587Z,34.79
2022-08-25T13:22:15.532Z,34.62
2022-08-25T13:23:20.961Z,34.46
2022-08-25T13:25:46.251Z,34.52
2022-08-25T13:26:53.349Z,34.65
2022-08-25T13:28:00.875Z,34.60
2022-08-25T13:29:11.569Z,34.41
2022-08-25T13:31:42.084Z,34.60
2022-08-25T13:32:45.792Z,34.24
2022-08-25T13:34:05.423Z,34.16
2022-08-25T13:35:14.700Z,34.22
2022-08-25T13:36:38.795Z,34.32
2022-08-25T13:37:44.106Z,34.33
2022-08-25T13:38:51.742Z,34.18
2022-08-25T13:40:17.943Z,33.99
2022-08-25T13:41:28.772Z,34.19
2022-08-25T13:42:30.627Z,33.87
2022-08-25T13:43:36.158Z,33.86
2022-08-25T13:44:41.126Z,33.83
2022-08-25T13:45:51.057Z,34.02
2022-08-25T13:47:15.639Z,34.17
2022-08-25T13:48:39.620Z,34.15
2022-08-25T13:49:48.380Z,34.30
2022-08-25T13:50:52.877Z,34.41
2022-08-25T13:52:00.683Z,34.24
2022-08-25T13:53:13.967Z,34.07
2022-08-25T13:54:40.551Z,34.12
2022-08-25T13:55:57.676Z,34.44
2022-08-25T13:57:18.550Z,34.30
2022-08-25T13:58:39.255Z,34.23
2022-08-25T13:59:40.210Z,34.59
2022-08-25T14:00:49.793Z,34.60
2022-08-25T14:01:59.992Z,34.38
2022-08-25T14:03:13.122Z,34.03
2022-08-25T14:04:33.261Z,34.14
2022-08-25T14:05:42.726Z,34.06
2022-08-25T14:06:47.804Z,33.80
2022-08-25T14:08:03.796Z,34.04
2022-08-25T14:09:06.084Z,34.15
2022-08-25T14:10:13.810Z,34.19
2022-08-25T14:11:33.805Z,33.93
2022-08-25T14:12:47.373Z,33.92
2022-08-25T14:13:54.968Z,33.96
2022-08-25T14:15:06.185Z,34.06
2022-08-25T14:16:22.808Z,33.94
2022-08-25T14:17:39.314Z,33.65
2022-08-25T14:18:34.639Z,33.40
2022-08-25T14:19:45.805Z,33.59
2022-08-25T14:21:02.698Z,33.62
2022-08-25T14:22:13.112Z,33.56
2022-08-25T14:23:22.083Z,33.43
2022-08-25T14:24:27.763Z,33.61
2022-08-25T14:25:32.473Z,33.59
2022-08-25T14:26:36.262Z,33.34
2022-08-25T14:28:06.974Z,33.24
2022-08-25T14:28:53.016Z,33.40
2022-08-25T14:29:56.796Z,33.38
2022-08-25T14:31:05.174Z,33.36
2022-08-25T14:32:10.913Z,33.46
2022-08-25T14:33:21.247Z,33.61
2022-08-25T14:34:28.840Z,33.38
2022-08-25T14:35:32.857Z,33.41
2022-08-25T14:36:38.645Z,33.54
2022-08-25T14:37:43.060Z,33.45
2022-08-25T14:38:47.142Z,33.44
2022-08-25T14:39:55.052Z,33.34
2022-08-25T14:41:02.287Z,33.22
2022-08-25T14:42:09.813Z,33.01
2022-08-25T14:43:13.978Z,33.12
2022-08-25T14:44:18.292Z,33.32
2022-08-25T14:45:21.535Z,33.43
2022-08-25T14:46:29.175Z,33.34
2022-08-25T14:47:34.300Z,33.33
2022-08-25T14:48:42.343Z,33.38
2022-08-25T14:49:50.892Z,33.43
2022-08-25T14:51:00.490Z,33.13
2022-08-25T14:52:11.291Z,33.11
2022-08-25T14:53:16.835Z,33.04
2022-08-25T14:54:24.410Z,33.17
2022-08-25T14:55:32.411Z,33.40
2022-08-25T14:56:34.968Z,33.40
2022-08-25T14:57:40.637Z,33.18
2022-08-25T14:58:48.280Z,33.18
2022-08-25T14:59:50.840Z,33.07
2022-08-25T15:01:06.266Z,32.95
2022-08-25T15:02:15.546Z,32.92
2022-08-25T15:03:40.983Z,32.94
2022-08-25T15:04:57.577Z,32.94
2022-08-25T15:06:03.474Z,33.24
2022-08-25T15:07:11.342Z,33.04
2022-08-25T15:08:36.810Z,32.84
2022-08-25T15:09:42.999Z,32.88
2022-08-25T15:10:47.932Z,32.87
2022-08-25T15:11:55.788Z,32.90
2022-08-25T15:13:03.004Z,32.87
2022-08-25T15:15:21.063Z,33.07
2022-08-25T15:16:40.075Z,33.11
2022-08-25T15:17:47.579Z,33.17
2022-08-25T15:18:54.660Z,32.94
2022-08-25T15:19:59.550Z,33.06
2022-08-25T15:21:03.968Z,33.09
2022-08-25T15:22:08.333Z,32.99
2022-08-25T15:23:14.785Z,32.78
2022-08-25T15:24:20.213Z,32.60
2022-08-25T15:25:24.886Z,32.63
2022-08-25T15:26:36.998Z,32.61
2022-08-25T15:27:41.991Z,32.83
2022-08-25T15:28:51.087Z,32.47
2022-08-25T15:29:53.820Z,32.49
2022-08-25T15:30:57.250Z,32.63
2022-08-25T15:32:00.852Z,32.65
2022-08-25T15:33:04.425Z,32.61
2022-08-25T15:34:11.623Z,32.54
2022-08-25T15:35:15.314Z,32.59
2022-08-25T15:36:24.562Z,32.63
2022-08-25T15:37:30.973Z,32.63
2022-08-25T15:38:37.375Z,32.64
2022-08-25T15:39:42.730Z,32.64
2022-08-25T15:40:47.396Z,32.64
2022-08-25T15:41:52.552Z,32.49
2022-08-25T15:42:56.169Z,32.54
2022-08-25T15:44:01.616Z,32.63
2022-08-25T15:45:08.759Z,32.58
2022-08-25T15:46:18.501Z,32.52
2022-08-25T15:47:23.720Z,32.53
2022-08-25T15:48:30.750Z,32.53
2022-08-25T15:49:34.602Z,32.50
2022-08-25T15:50:38.737Z,32.45
2022-08-25T15:51:49.373Z,32.44
2022-08-25T15:52:53.328Z,32.45
2022-08-25T15:54:04.843Z,32.24
2022-08-25T15:55:10.556Z,32.28
2022-08-25T15:56:15.659Z,32.38
2022-08-25T15:57:25.318Z,32.40